createdAt,value
2023-03-13T00:01:17.521Z,99788.38
2023-03-13T00:03:47.019Z,99773.25
2023-03-13T00:06:15.549Z,99785.69
2023-03-13T00:08:44.686Z,99772.28
2023-03-13T00:11:14.410Z,99776.56
2023-03-13T00:13:42.879Z,99770.13
2023-03-13T00:16:12.925Z,99772.78
2023-03-13T00:18:45.357Z,99768.19
2023-03-13T00:21:14.859Z,99766.13
2023-03-13T00:23:42.932Z,99756.06
2023-03-13T00:26:12.325Z,99756.91
2023-03-13T00:28:41.365Z,99747.91
2023-03-13T00:31:10.752Z,99741.44
2023-03-13T00:33:40.590Z,99741.34
2023-03-13T00:36:10.202Z,99736.81
2023-03-13T00:38:40.073Z,99730.38
2023-03-13T00:41:09.388Z,99727.69
2023-03-13T00:43:37.428Z,99716.00
2023-03-13T00:46:05.935Z,99710.66
2023-03-13T00:48:34.247Z,99713.22
2023-03-13T00:51:02.574Z,99701.50
2023-03-13T00:53:31.089Z,99691.63
2023-03-13T00:56:02.228Z,99686.16
2023-03-13T00:58:32.550Z,99695.16
2023-03-13T01:01:07.937Z,99699.56
2023-03-13T01:03:36.692Z,99698.72
2023-03-13T01:06:06.997Z,99695.06
2023-03-13T01:08:35.408Z,99697.84
2023-03-13T01:11:07.021Z,99692.47
2023-03-13T01:13:35.772Z,99693.22
2023-03-13T01:16:05.879Z,99687.00
2023-03-13T01:18:34.848Z,99682.47
2023-03-13T01:21:03.070Z,99666.38
2023-03-13T01:23:31.349Z,99678.09
2023-03-13T01:25:59.885Z,99661.00
2023-03-13T01:28:29.295Z,99668.19
2023-03-13T01:30:57.408Z,99664.66
2023-03-13T01:33:25.496Z,99653.81
2023-03-13T01:35:53.701Z,99648.44
2023-03-13T01:38:21.788Z,99642.31
2023-03-13T01:40:50.485Z,99644.16
2023-03-13T01:43:28.187Z,99631.59
2023-03-13T01:46:14.783Z,99635.25
2023-03-13T01:48:46.031Z,99621.06
2023-03-13T01:51:19.264Z,99618.28
2023-03-13T01:53:50.093Z,99613.66
2023-03-13T01:56:21.611Z,99607.31
2023-03-13T01:58:50.948Z,99604.50
2023-03-13T02:01:21.110Z,99592.91
2023-03-13T02:03:50.293Z,99587.53
2023-03-13T02:06:18.848Z,99583.25
2023-03-13T02:08:50.244Z,99579.59
2023-03-13T02:11:25.372Z,99582.16
2023-03-13T02:13:54.787Z,99557.03
2023-03-13T02:16:24.458Z,99551.66
2023-03-13T02:18:52.555Z,99553.28
2023-03-13T02:21:33.238Z,99538.22
2023-03-13T02:24:08.965Z,99531.16
2023-03-13T02:26:38.401Z,99525.03
2023-03-13T02:29:06.478Z,99523.56
2023-03-13T02:31:34.693Z,99516.56
2023-03-13T02:34:03.525Z,99509.59
2023-03-13T02:36:32.088Z,99506.91
2023-03-13T02:39:04.262Z,99490.06
2023-03-13T02:41:33.500Z,99487.38
2023-03-13T02:44:02.911Z,99489.22
2023-03-13T02:46:32.446Z,99485.66
2023-03-13T02:49:00.623Z,99485.56
2023-03-13T02:51:30.991Z,99484.56
2023-03-13T02:54:01.898Z,99470.41
2023-03-13T02:56:32.465Z,99470.28
2023-03-13T02:59:01.911Z,99464.94
2023-03-13T03:01:29.986Z,99464.94
2023-03-13T03:03:58.117Z,99463.22
2023-03-13T03:06:26.567Z,99459.69
2023-03-13T03:08:54.698Z,99449.91
2023-03-13T03:11:22.793Z,99452.59
2023-03-13T03:13:50.838Z,99430.16
2023-03-13T03:16:20.725Z,99430.88
2023-03-13T03:18:49.263Z,99429.06
2023-03-13T03:21:17.331Z,99418.31
2023-03-13T03:23:45.380Z,99411.25
2023-03-13T03:26:13.485Z,99409.66
2023-03-13T03:28:41.535Z,99407.81
2023-03-13T03:31:10.979Z,99405.25
2023-03-13T03:33:40.648Z,99396.34
2023-03-13T03:36:11.002Z,99400.97
2023-03-13T03:38:42.464Z,99386.78
2023-03-13T03:41:12.296Z,99377.88
2023-03-13T03:43:40.548Z,99376.06
2023-03-13T03:46:08.892Z,99373.50
2023-03-13T03:48:37.588Z,99366.16
2023-03-13T03:51:07.981Z,99365.31
2023-03-13T03:53:36.018Z,99346.44
2023-03-13T03:56:04.360Z,99344.59
2023-03-13T03:58:32.442Z,99338.25
2023-03-13T04:01:00.784Z,99329.22
2023-03-13T04:03:28.959Z,99323.88
2023-03-13T04:05:57.130Z,99310.44
2023-03-13T04:08:26.754Z,99296.03
2023-03-13T04:10:54.860Z,99287.25
2023-03-13T04:13:22.888Z,99286.28
2023-03-13T04:15:50.957Z,99272.88
2023-03-13T04:18:19.028Z,99271.03
2023-03-13T04:20:47.130Z,99257.63
2023-03-13T04:23:15.198Z,99255.78
2023-03-13T04:25:44.635Z,99252.13
2023-03-13T04:28:12.663Z,99248.47
2023-03-13T04:30:40.783Z,99236.00
2023-03-13T04:33:08.951Z,99234.19
2023-03-13T04:35:37.114Z,99230.53
2023-03-13T04:38:05.351Z,99215.28
2023-03-13T04:40:33.545Z,99214.28
2023-03-13T04:43:02.972Z,99211.59
2023-03-13T04:45:31.023Z,99196.22
2023-03-13T04:47:59.098Z,99204.16
2023-03-13T04:50:27.187Z,99189.78
2023-03-13T04:52:55.260Z,99187.09
2023-03-13T04:55:23.401Z,99173.78
2023-03-13T04:57:51.450Z,99162.94
2023-03-13T05:00:21.616Z,99158.44
2023-03-13T05:02:49.678Z,99150.25
2023-03-13T05:05:17.899Z,99135.84
2023-03-13T05:07:45.970Z,99132.19
2023-03-13T05:10:14.061Z,99117.91
2023-03-13T05:12:42.140Z,99110.56
2023-03-13T05:15:10.788Z,99098.75
2023-03-13T05:17:40.227Z,99092.41
2023-03-13T05:20:11.266Z,99083.25
2023-03-13T05:22:39.557Z,99075.94
2023-03-13T05:25:08.137Z,99068.50
2023-03-13T05:27:36.219Z,99057.63
2023-03-13T05:30:04.594Z,99060.31
2023-03-13T05:32:32.726Z,99050.41
2023-03-13T05:35:02.205Z,99052.97
2023-03-13T05:37:30.384Z,99049.31
2023-03-13T05:39:58.521Z,99038.44
2023-03-13T05:42:26.959Z,99032.94
2023-03-13T05:44:55.040Z,99019.41
2023-03-13T05:47:23.128Z,99017.56
2023-03-13T05:49:51.247Z,99013.06
2023-03-13T05:52:20.673Z,99005.84
2023-03-13T05:54:48.777Z,98999.50
2023-03-13T05:57:16.892Z,98993.13
2023-03-13T05:59:45.007Z,99000.22
2023-03-13T06:02:13.081Z,98989.47
2023-03-13T06:04:41.577Z,98983.97
2023-03-13T06:07:09.818Z,98975.91
2023-03-13T06:09:40.926Z,98966.88
2023-03-13T06:12:09.889Z,98945.09
2023-03-13T06:14:38.337Z,98945.97
2023-03-13T06:17:07.146Z,98944.03
2023-03-13T06:19:35.197Z,98941.19
2023-03-13T06:22:03.306Z,98932.88
2023-03-13T06:24:31.554Z,98925.53
2023-03-13T06:27:01.010Z,98930.63
2023-03-13T06:29:29.067Z,98922.34
2023-03-13T06:31:57.506Z,98923.91
2023-03-13T06:34:25.686Z,98918.41
2023-03-13T06:36:53.750Z,98903.00
2023-03-13T06:39:21.790Z,98902.72
2023-03-13T06:41:49.869Z,98896.38
2023-03-13T06:44:19.320Z,98881.94
2023-03-13T06:46:47.467Z,98875.47
2023-03-13T06:49:15.542Z,98870.69
2023-03-13T06:51:43.630Z,98876.75
2023-03-13T06:54:11.776Z,98870.41
2023-03-13T06:56:39.905Z,98873.81
2023-03-13T06:59:07.996Z,98855.84
2023-03-13T07:01:37.420Z,98838.72
2023-03-13T07:04:05.551Z,98827.72
2023-03-13T07:06:33.752Z,98826.59
2023-03-13T07:09:01.869Z,98832.69
2023-03-13T07:11:29.937Z,98823.50
2023-03-13T07:14:15.291Z,98819.56
2023-03-13T07:16:46.043Z,98817.31
2023-03-13T07:19:14.362Z,98811.53
2023-03-13T07:21:42.693Z,98797.69
2023-03-13T07:24:10.946Z,98782.97
2023-03-13T07:26:40.300Z,98799.66
2023-03-13T07:29:10.386Z,98795.00
2023-03-13T07:31:39.379Z,98786.81
2023-03-13T07:34:08.820Z,98782.84
2023-03-13T07:36:36.911Z,98768.13
2023-03-13T07:39:05.076Z,98767.72
2023-03-13T07:41:33.189Z,98749.47
2023-03-13T07:44:01.269Z,98754.56
2023-03-13T07:46:29.398Z,98764.03
2023-03-13T07:48:57.604Z,98734.03
2023-03-13T07:51:40.772Z,98744.38
2023-03-13T07:54:11.751Z,98749.47
2023-03-13T07:56:40.173Z,98747.50
2023-03-13T07:59:08.307Z,98737.16
2023-03-13T08:01:36.689Z,98743.94
2023-03-13T08:04:05.577Z,98746.22
2023-03-13T08:06:36.810Z,98738.72
2023-03-13T08:09:05.510Z,98743.09
2023-03-13T08:11:33.679Z,98750.03
2023-03-13T08:14:01.761Z,98733.59
2023-03-13T08:16:31.359Z,98729.63
2023-03-13T08:19:00.051Z,98739.25
2023-03-13T08:21:29.655Z,98730.72
2023-03-13T08:24:01.212Z,98725.78
2023-03-13T08:26:30.933Z,98715.44
2023-03-13T08:29:00.098Z,98724.81
2023-03-13T08:31:30.288Z,98733.28
2023-03-13T08:33:59.312Z,98728.19
2023-03-13T08:36:29.363Z,98717.66
2023-03-13T08:39:01.565Z,98718.78
2023-03-13T08:41:31.415Z,98722.88
2023-03-13T08:43:59.605Z,98717.88
2023-03-13T08:46:30.084Z,98711.91
2023-03-13T08:48:58.244Z,98703.22
2023-03-13T08:51:27.761Z,98708.34
2023-03-13T08:53:56.979Z,98697.94
2023-03-13T08:56:30.375Z,98686.69
2023-03-13T08:59:00.284Z,98690.94
2023-03-13T09:01:30.116Z,98685.28
2023-03-13T09:03:59.169Z,98676.03
2023-03-13T09:06:28.138Z,98671.88
2023-03-13T09:08:57.898Z,98679.69
2023-03-13T09:11:27.714Z,98663.88
2023-03-13T09:13:59.186Z,98669.66
2023-03-13T09:16:28.726Z,98658.59
2023-03-13T09:18:57.453Z,98648.16
2023-03-13T09:21:27.265Z,98660.34
2023-03-13T09:23:55.629Z,98658.06
2023-03-13T09:26:24.419Z,98657.41
2023-03-13T09:28:54.338Z,98659.19
2023-03-13T09:31:27.108Z,98652.88
2023-03-13T09:33:55.822Z,98656.81
2023-03-13T09:36:24.825Z,98641.84
2023-03-13T09:38:53.650Z,98645.94
2023-03-13T09:41:25.984Z,98645.31
2023-03-13T09:44:01.506Z,98647.56
2023-03-13T09:46:35.017Z,98647.78
2023-03-13T09:49:06.265Z,98659.13
2023-03-13T09:51:37.273Z,98660.19
2023-03-13T09:54:08.713Z,98653.31
2023-03-13T09:56:41.877Z,98656.69
2023-03-13T09:59:18.812Z,98661.44
2023-03-13T10:01:48.602Z,98647.50
2023-03-13T10:04:28.910Z,98660.84
2023-03-13T10:06:58.056Z,98665.06
2023-03-13T10:09:30.502Z,98660.50
2023-03-13T10:12:05.347Z,98677.72
2023-03-13T10:14:41.019Z,98667.94
2023-03-13T10:17:14.860Z,98660.84
2023-03-13T10:19:44.431Z,98678.06
2023-03-13T10:22:16.225Z,98685.16
2023-03-13T10:24:51.430Z,98690.38
2023-03-13T10:27:19.524Z,98655.09
2023-03-13T10:29:48.991Z,98682.97
2023-03-13T10:32:20.035Z,98695.47
2023-03-13T10:34:53.707Z,98691.75
2023-03-13T10:37:24.571Z,98685.72
2023-03-13T10:39:53.225Z,98699.13
2023-03-13T10:42:29.411Z,98674.53
2023-03-13T10:45:00.340Z,98693.84
2023-03-13T10:47:28.921Z,98677.69
2023-03-13T10:49:58.749Z,98679.41
2023-03-13T10:52:36.930Z,98677.28
2023-03-13T10:55:07.101Z,98688.78
2023-03-13T10:57:36.449Z,98666.16
2023-03-13T11:00:24.481Z,98669.09
2023-03-13T11:02:53.933Z,98675.88
2023-03-13T11:05:32.797Z,98674.84
2023-03-13T11:08:11.987Z,98679.94
2023-03-13T11:10:51.738Z,98679.28
2023-03-13T11:13:37.652Z,98672.00
2023-03-13T11:16:29.576Z,98660.34
2023-03-13T11:19:18.212Z,98669.50
2023-03-13T11:21:57.593Z,98657.66
2023-03-13T11:24:29.796Z,98659.69
2023-03-13T11:27:05.007Z,98657.84
2023-03-13T11:29:39.482Z,98657.31
2023-03-13T11:32:19.644Z,98656.97
2023-03-13T11:34:51.836Z,98652.00
2023-03-13T11:37:20.487Z,98642.31
2023-03-13T11:40:06.736Z,98648.75
2023-03-13T11:42:49.980Z,98637.91
2023-03-13T11:45:31.859Z,98654.66
2023-03-13T11:48:07.520Z,98648.38
2023-03-13T11:50:41.336Z,98638.38
2023-03-13T11:53:20.422Z,98652.25
2023-03-13T11:55:58.180Z,98642.25
2023-03-13T11:58:52.774Z,98648.72
2023-03-13T12:01:23.782Z,98628.56
2023-03-13T12:03:58.571Z,98641.56
2023-03-13T12:06:31.870Z,98642.88
2023-03-13T12:09:05.114Z,98654.81
2023-03-13T12:11:38.060Z,98706.78
2023-03-13T12:14:11.398Z,98652.25
2023-03-13T12:16:43.121Z,98657.66
2023-03-13T12:19:18.402Z,98654.38
2023-03-13T12:21:49.848Z,98651.66
2023-03-13T12:24:24.072Z,98640.78
2023-03-13T12:26:55.904Z,98647.75
2023-03-13T12:29:35.497Z,98645.41
2023-03-13T12:32:10.339Z,98631.81
2023-03-13T12:34:46.622Z,98610.28
2023-03-13T12:37:21.636Z,98631.19
2023-03-13T12:39:52.151Z,98634.13
2023-03-13T12:42:38.748Z,98623.66
2023-03-13T12:45:08.884Z,98631.44
2023-03-13T12:47:48.159Z,98617.00
2023-03-13T12:50:35.775Z,98615.50
2023-03-13T12:53:21.480Z,98630.28
2023-03-13T12:56:08.324Z,98598.75
2023-03-13T12:58:42.199Z,98629.63
2023-03-13T13:01:16.117Z,98602.47
2023-03-13T13:03:51.915Z,98609.59
2023-03-13T13:06:21.665Z,98616.72
2023-03-13T13:09:03.147Z,98595.56
2023-03-13T13:11:53.520Z,98600.28
2023-03-13T13:15:05.825Z,98590.88
2023-03-13T13:18:01.584Z,98588.19
2023-03-13T13:20:42.151Z,98587.16
2023-03-13T13:23:37.578Z,98569.50
2023-03-13T13:26:47.385Z,98571.38
2023-03-13T13:29:58.074Z,98560.41
2023-03-13T13:32:38.085Z,98564.94
2023-03-13T13:35:19.633Z,98552.22
2023-03-13T13:37:49.545Z,98540.25
2023-03-13T13:40:25.226Z,98533.78
2023-03-13T13:42:55.116Z,98534.03
2023-03-13T13:45:31.249Z,98539.84
2023-03-13T13:48:30.246Z,98534.41
2023-03-13T13:51:25.401Z,98516.78
2023-03-13T13:53:56.048Z,98527.41
2023-03-13T13:56:42.182Z,98518.91
2023-03-13T13:59:42.258Z,98518.97
2023-03-13T14:02:27.357Z,98524.75
2023-03-13T14:05:01.056Z,98485.13
2023-03-13T14:07:33.256Z,98513.13
2023-03-13T14:10:05.462Z,98520.66
2023-03-13T14:12:36.397Z,98512.94
2023-03-13T14:15:09.871Z,98504.84
2023-03-13T14:17:42.715Z,98512.66
2023-03-13T14:20:35.185Z,98502.69
2023-03-13T14:23:06.188Z,98503.72
2023-03-13T14:25:47.958Z,98490.00
2023-03-13T14:28:25.139Z,98494.31
2023-03-13T14:30:54.446Z,98498.59
2023-03-13T14:33:22.615Z,98496.06
2023-03-13T14:35:51.183Z,98494.84
2023-03-13T14:38:21.517Z,98497.88
2023-03-13T14:40:50.367Z,98501.44
2023-03-13T14:43:22.746Z,98502.28
2023-03-13T14:45:52.330Z,98484.09
2023-03-13T14:48:24.683Z,98494.66
2023-03-13T14:51:05.406Z,98481.47
2023-03-13T14:53:42.189Z,98492.69
2023-03-13T14:56:19.131Z,98516.84
2023-03-13T14:58:48.647Z,98485.38
2023-03-13T15:01:26.457Z,98491.22
2023-03-13T15:03:54.723Z,98486.38
2023-03-13T15:06:24.522Z,98488.06
2023-03-13T15:09:20.831Z,98503.03
2023-03-13T15:11:59.888Z,98483.00
2023-03-13T15:14:37.647Z,98494.88
2023-03-13T15:17:12.514Z,98477.94
2023-03-13T15:19:40.669Z,98487.28
2023-03-13T15:22:15.190Z,98493.47
2023-03-13T15:24:48.439Z,98478.75
2023-03-13T15:27:23.423Z,98492.22
2023-03-13T15:29:51.762Z,98487.69
2023-03-13T15:32:27.764Z,98489.47
2023-03-13T15:34:58.656Z,98477.25
2023-03-13T15:37:27.402Z,98484.75
2023-03-13T15:39:56.572Z,98478.09
2023-03-13T15:42:25.526Z,98474.34
2023-03-13T15:44:53.659Z,98476.22
2023-03-13T15:47:23.479Z,98463.69
2023-03-13T15:49:51.564Z,98481.84
2023-03-13T15:52:22.603Z,98467.25
2023-03-13T15:54:52.059Z,98451.81
2023-03-13T15:57:23.172Z,98451.34
2023-03-13T15:59:51.772Z,98457.50
2023-03-13T16:02:21.525Z,98461.78
2023-03-13T16:04:51.617Z,98466.06
2023-03-13T16:07:21.266Z,98467.63
2023-03-13T16:09:49.962Z,98447.50
2023-03-13T16:12:18.098Z,98470.56
2023-03-13T16:14:46.208Z,98464.84
2023-03-13T16:17:16.417Z,98472.31
2023-03-13T16:19:44.931Z,98471.84
2023-03-13T16:22:14.701Z,98446.25
2023-03-13T16:24:42.882Z,98462.91
2023-03-13T16:27:15.757Z,98453.25
2023-03-13T16:29:44.721Z,98463.59
2023-03-13T16:32:14.215Z,98455.81
2023-03-13T16:34:43.098Z,98449.72
2023-03-13T16:37:14.914Z,98455.66
2023-03-13T16:39:43.499Z,98448.91
2023-03-13T16:42:11.691Z,98466.53
2023-03-13T16:44:39.945Z,98451.00
2023-03-13T16:47:17.179Z,98471.31
2023-03-13T16:49:47.469Z,98447.66
2023-03-13T16:52:17.782Z,98468.66
2023-03-13T16:54:46.234Z,98461.56
2023-03-13T16:57:16.186Z,98473.09
2023-03-13T16:59:44.367Z,98455.16
2023-03-13T17:02:15.574Z,98475.31
2023-03-13T17:04:44.872Z,98476.66
2023-03-13T17:07:19.122Z,98469.91
2023-03-13T17:09:47.589Z,98454.19
2023-03-13T17:12:15.930Z,98475.34
2023-03-13T17:14:44.333Z,98451.31
2023-03-13T17:17:13.661Z,98455.41
2023-03-13T17:19:41.714Z,98480.81
2023-03-13T17:22:12.746Z,98468.47
2023-03-13T17:24:42.476Z,98435.44
2023-03-13T17:27:13.308Z,98454.75
2023-03-13T17:29:41.565Z,98464.38
2023-03-13T17:32:11.298Z,98492.84
2023-03-13T17:34:39.474Z,98454.91
2023-03-13T17:37:14.896Z,98476.59
2023-03-13T17:39:44.701Z,98480.31
2023-03-13T17:42:13.176Z,98459.63
2023-03-13T17:44:42.174Z,98462.88
2023-03-13T17:47:14.983Z,98457.28
2023-03-13T17:49:43.399Z,98486.22
2023-03-13T17:52:15.229Z,98471.66
2023-03-13T17:54:45.490Z,98488.09
2023-03-13T17:57:18.404Z,98492.47
2023-03-13T17:59:47.102Z,98469.31
2023-03-13T18:02:16.839Z,98493.16
2023-03-13T18:04:45.199Z,98485.03
2023-03-13T18:07:22.326Z,98476.41
2023-03-13T18:09:51.838Z,98474.06
2023-03-13T18:12:20.187Z,98479.81
2023-03-13T18:14:48.515Z,98473.22
2023-03-13T18:17:18.399Z,98479.47
2023-03-13T18:19:46.806Z,98473.56
2023-03-13T18:22:16.019Z,98491.50
2023-03-13T18:24:44.522Z,98468.34
2023-03-13T18:27:16.087Z,98460.56
2023-03-13T18:29:44.627Z,98459.03
2023-03-13T18:32:14.697Z,98457.16
2023-03-13T18:34:43.119Z,98476.94
2023-03-13T18:37:21.763Z,98465.81
2023-03-13T18:39:51.223Z,98444.16
2023-03-13T18:42:20.707Z,98468.69
2023-03-13T18:44:48.903Z,98438.25
2023-03-13T18:47:18.377Z,98455.50
2023-03-13T18:49:47.116Z,98457.53
2023-03-13T18:52:15.462Z,98448.41
2023-03-13T18:54:44.414Z,98450.28
2023-03-13T18:57:17.436Z,98440.47
2023-03-13T18:59:47.106Z,98439.75
2023-03-13T19:02:16.185Z,98424.72
2023-03-13T19:04:44.712Z,98440.47
2023-03-13T19:07:14.980Z,98433.38
2023-03-13T19:09:44.733Z,98448.22
2023-03-13T19:12:15.492Z,98448.22
2023-03-13T19:14:44.009Z,98442.16
2023-03-13T19:17:17.976Z,98445.16
2023-03-13T19:19:46.280Z,98435.53
2023-03-13T19:22:15.123Z,98456.34
2023-03-13T19:24:43.192Z,98453.97
2023-03-13T19:27:13.207Z,98452.28
2023-03-13T19:29:41.475Z,98455.31
2023-03-13T19:32:15.178Z,98448.38
2023-03-13T19:34:43.695Z,98444.16
2023-03-13T19:37:12.563Z,98459.56
2023-03-13T19:39:41.590Z,98465.13
2023-03-13T19:42:10.134Z,98479.50
2023-03-13T19:44:38.320Z,98484.06
2023-03-13T19:47:06.491Z,98475.94
2023-03-13T19:49:35.900Z,98492.19
2023-03-13T19:52:04.156Z,98495.06
2023-03-13T19:54:32.191Z,98498.25
2023-03-13T19:57:00.329Z,98484.03
2023-03-13T19:59:28.444Z,98493.16
2023-03-13T20:01:56.859Z,98477.97
2023-03-13T20:04:25.147Z,98467.50
2023-03-13T20:06:54.697Z,98481.31
2023-03-13T20:09:23.270Z,98483.34
2023-03-13T20:11:51.342Z,98466.28
2023-03-13T20:14:19.484Z,98465.78
2023-03-13T20:16:49.139Z,98472.38
2023-03-13T20:19:17.311Z,98475.25
2023-03-13T20:21:46.677Z,98470.00
2023-03-13T20:24:16.333Z,98473.53
2023-03-13T20:26:44.446Z,98476.56
2023-03-13T20:29:12.516Z,98467.25
2023-03-13T20:31:40.561Z,98473.16
2023-03-13T20:34:08.738Z,98464.88
2023-03-13T20:36:36.830Z,98463.84
2023-03-13T20:39:05.540Z,98465.34
2023-03-13T20:41:34.942Z,98463.13
2023-03-13T20:44:03.124Z,98443.19
2023-03-13T20:46:31.275Z,98439.28
2023-03-13T20:48:59.366Z,98445.38
2023-03-13T20:51:28.882Z,98445.84
2023-03-13T20:53:57.045Z,98443.28
2023-03-13T20:56:25.302Z,98446.50
2023-03-13T20:58:54.752Z,98435.16
2023-03-13T21:01:24.842Z,98437.19
2023-03-13T21:03:53.319Z,98425.88
2023-03-13T21:06:21.437Z,98442.69
2023-03-13T21:08:49.516Z,98437.59
2023-03-13T21:11:19.551Z,98439.09
2023-03-13T21:13:48.156Z,98442.97
2023-03-13T21:16:18.546Z,98435.16
2023-03-13T21:18:46.740Z,98444.44
2023-03-13T21:21:17.246Z,98439.22
2023-03-13T21:23:45.804Z,98442.06
2023-03-13T21:26:14.257Z,98439.88
2023-03-13T21:28:42.397Z,98432.75
2023-03-13T21:31:12.715Z,98409.47
2023-03-13T21:33:42.855Z,98405.09
2023-03-13T21:36:11.986Z,98398.84
2023-03-13T21:38:40.089Z,98399.84
2023-03-13T21:41:09.494Z,98405.25
2023-03-13T21:43:37.625Z,98411.66
2023-03-13T21:46:06.285Z,98393.78
2023-03-13T21:48:34.461Z,98400.19
2023-03-13T21:51:03.908Z,98395.78
2023-03-13T21:53:32.203Z,98403.72
2023-03-13T21:56:00.439Z,98394.09
2023-03-13T21:58:28.506Z,98400.50
2023-03-13T22:00:57.025Z,98405.91
2023-03-13T22:03:26.513Z,98406.75
2023-03-13T22:05:55.004Z,98399.50
2023-03-13T22:08:24.527Z,98421.09
2023-03-13T22:10:54.850Z,98422.63
2023-03-13T22:13:23.240Z,98420.25
2023-03-13T22:15:52.740Z,98413.72
2023-03-13T22:18:20.901Z,98434.97
2023-03-13T22:20:49.014Z,98417.63
2023-03-13T22:23:17.243Z,98420.16
2023-03-13T22:25:48.060Z,98427.91
2023-03-13T22:28:16.222Z,98426.06
2023-03-13T22:30:44.973Z,98422.53
2023-03-13T22:33:13.127Z,98423.38
2023-03-13T22:35:42.199Z,98423.22
2023-03-13T22:38:10.366Z,98420.38
2023-03-13T22:40:38.412Z,98414.13
2023-03-13T22:43:07.857Z,98402.31
2023-03-13T22:45:36.378Z,98413.13
2023-03-13T22:48:06.540Z,98406.72
2023-03-13T22:50:35.039Z,98399.63
2023-03-13T22:53:03.226Z,98395.22
2023-03-13T22:55:32.761Z,98391.81
2023-03-13T22:58:00.987Z,98410.19
2023-03-13T23:00:30.451Z,98405.13
2023-03-13T23:02:58.695Z,98407.16
2023-03-13T23:05:26.751Z,98405.47
2023-03-13T23:07:54.853Z,98404.63
2023-03-13T23:10:22.962Z,98412.16
2023-03-13T23:12:51.043Z,98393.28
2023-03-13T23:15:19.251Z,98365.47
2023-03-13T23:17:48.690Z,98371.03
2023-03-13T23:20:16.853Z,98370.34
2023-03-13T23:22:46.191Z,98380.78
2023-03-13T23:25:14.905Z,98375.84
2023-03-13T23:27:43.546Z,98368.09
2023-03-13T23:30:14.878Z,98371.97
2023-03-13T23:32:44.520Z,98359.81
2023-03-13T23:35:16.805Z,98331.44
2023-03-13T23:37:48.132Z,98342.41
2023-03-13T23:40:16.457Z,98349.81
2023-03-13T23:42:47.692Z,98348.44
2023-03-13T23:45:15.888Z,98354.84
2023-03-13T23:47:44.124Z,98353.13
2023-03-13T23:50:14.338Z,98350.75
2023-03-13T23:52:42.924Z,98352.09
2023-03-13T23:55:11.511Z,98335.22
2023-03-13T23:57:39.621Z,98346.19
